Time;durP1;ratioP1;P1;durP2;ratioP2;P2;SDS_P1;SDS_P2;PMS_P1;PMS_P2;Temp;Humidity;BMP_temperature;BMP_pressure;BME280_temperature;BME280_humidity;BME280_pressure;Samples;Min_cycle;Max_cycle;Signal;HPM_P1;HPM_P2
2024/01/22 00:03:09;;;;;;;45.90;19.70;;;-4.10;99.90;;;-6.51;100.00;102010.09;10225933;28;97999;-90
2024/01/22 00:08:13;;;;;;;44.50;17.37;;;-4.10;99.90;;;-6.54;100.00;102016.13;10213288;28;96957;-91
2024/01/22 00:13:16;;;;;;;49.20;18.33;;;-4.20;99.90;;;-6.63;100.00;102020.56;10213512;28;96392;-91
2024/01/22 00:18:20;;;;;;;39.10;18.30;;;-4.30;99.90;;;-6.68;100.00;102028.34;10202670;28;97030;-91
2024/01/22 00:23:24;;;;;;;45.87;18.47;;;-4.30;99.90;;;-6.75;100.00;102024.97;10227500;28;96515;-92
2024/01/22 00:28:27;;;;;;;51.50;20.30;;;-4.40;99.90;;;-6.79;100.00;102014.66;10211621;28;96988;-91
2024/01/22 00:33:31;;;;;;;56.10;22.77;;;-4.50;99.90;;;-6.84;100.00;102012.09;10218596;28;96556;-91
2024/01/22 00:38:34;;;;;;;43.77;18.07;;;-4.50;99.90;;;-6.90;100.00;102006.97;10236249;28;97074;-90
2024/01/22 00:43:38;;;;;;;50.10;19.30;;;-4.50;99.90;;;-6.92;100.00;102010.47;10260133;28;96495;-90
2024/01/22 00:48:42;;;;;;;46.57;17.97;;;-4.60;99.90;;;-6.96;100.00;101985.50;10238671;28;96623;-90
2024/01/22 00:53:45;;;;;;;46.90;17.63;;;-4.60;99.90;;;-6.96;100.00;101990.69;10273685;28;96634;-90
2024/01/22 00:58:49;;;;;;;57.07;21.23;;;-4.60;99.90;;;-7.00;100.00;102005.38;10262633;28;96513;-91
2024/01/22 01:03:52;;;;;;;50.23;18.47;;;-4.70;99.90;;;-7.06;100.00;102000.25;10263588;28;97640;-92
2024/01/22 01:08:55;;;;;;;57.27;20.03;;;-4.70;99.90;;;-7.10;100.00;101990.78;10255337;28;96331;-91
2024/01/22 01:13:59;;;;;;;51.97;19.20;;;-4.70;99.90;;;-7.17;100.00;101981.38;10253435;28;96407;-91
2024/01/22 01:19:03;;;;;;;52.70;20.53;;;-4.80;99.90;;;-7.21;100.00;101980.53;10222320;28;96456;-92
2024/01/22 01:24:08;;;;;;;49.93;18.93;;;-4.90;99.90;;;-7.27;100.00;101976.28;10200075;28;96482;-92
2024/01/22 01:29:11;;;;;;;50.83;17.77;;;-4.90;99.90;;;-7.33;100.00;101973.75;10224106;28;96691;-93
2024/01/22 01:34:15;;;;;;;37.47;15.93;;;-4.90;99.90;;;-7.36;100.00;101965.16;10211512;28;96518;-91
2024/01/22 01:39:18;;;;;;;49.23;19.17;;;-4.90;99.90;;;-7.38;100.00;101977.22;10243120;28;96663;-92
2024/01/22 01:44:37;;;;;;;51.63;20.47;;;-5.00;99.90;;;-7.43;100.00;101977.28;10212677;28;97751;-92
2024/01/22 01:49:42;;;;;;;53.50;19.30;;;-5.00;99.90;;;-7.49;100.00;101964.41;10199994;28;97344;-91
2024/01/22 01:54:50;;;;;;;53.63;22.07;;;-5.10;99.90;;;-7.56;100.00;101973.91;10217688;28;96486;-91
2024/01/22 01:59:53;;;;;;;49.60;18.63;;;-5.10;99.90;;;-7.60;100.00;101982.53;10232719;28;96818;-91
2024/01/22 02:04:57;;;;;;;50.93;19.37;;;-5.20;99.90;;;-7.68;100.00;101983.44;10229624;28;96567;-90
2024/01/22 02:10:00;;;;;;;43.50;19.37;;;-5.30;99.90;;;-7.76;100.00;101980.06;10232320;28;96457;-91
2024/01/22 02:15:05;;;;;;;46.23;18.43;;;-5.30;99.90;;;-7.77;100.00;101976.63;10231869;28;98116;-90
2024/01/22 02:20:09;;;;;;;50.17;18.00;;;-5.40;99.90;;;-7.78;100.00;101964.59;10232920;28;96678;-90
2024/01/22 02:25:14;;;;;;;53.07;20.93;;;-5.40;99.90;;;-7.82;100.00;101961.16;10231717;28;96831;-90
2024/01/22 02:30:17;;;;;;;53.90;19.53;;;-5.40;99.90;;;-7.91;100.00;101947.47;10255902;28;97731;-89
2024/01/22 02:35:21;;;;;;;53.90;19.63;;;-5.50;99.90;;;-7.90;100.00;101944.00;10220044;28;96634;-90
2024/01/22 02:40:25;;;;;;;63.00;23.87;;;-5.50;99.90;;;-7.88;100.00;101939.69;10230325;28;96623;-90
2024/01/22 02:45:28;;;;;;;60.90;23.77;;;-5.50;99.90;;;-7.90;100.00;101947.44;10219303;28;96644;-90
2024/01/22 02:50:32;;;;;;;68.13;25.40;;;-5.50;99.90;;;-7.95;100.00;101949.19;10251379;28;96757;-90
2024/01/22 02:55:36;;;;;;;49.53;17.90;;;-5.60;99.90;;;-8.01;100.00;101944.06;10214076;28;96648;-90
2024/01/22 03:00:39;;;;;;;50.93;22.03;;;-5.60;99.90;;;-8.05;100.00;101933.75;10215254;28;96589;-90
2024/01/22 03:05:43;;;;;;;48.47;18.87;;;-5.60;99.90;;;-8.08;100.00;101926.91;10210817;28;96625;-90
2024/01/22 03:10:47;;;;;;;56.03;22.63;;;-5.70;99.90;;;-8.12;100.00;101933.78;10203348;28;97286;-90
2024/01/22 03:15:51;;;;;;;47.83;19.80;;;-5.70;99.90;;;-8.14;100.00;101924.34;10204600;28;96640;-90
2024/01/22 03:20:54;;;;;;;47.17;18.37;;;-5.70;99.90;;;-8.20;100.00;101914.06;10229260;28;96538;-90
2024/01/22 03:25:58;;;;;;;39.67;17.47;;;-5.80;99.90;;;-8.21;100.00;101923.53;10213899;28;96653;-91
2024/01/22 03:31:01;;;;;;;58.73;18.70;;;-5.80;99.90;;;-8.23;100.00;101919.22;10252514;28;96582;-90
2024/01/22 03:36:05;;;;;;;54.73;22.37;;;-5.80;99.90;;;-8.25;100.00;101913.22;10221807;28;96822;-90
2024/01/22 03:41:08;;;;;;;64.47;24.87;;;-5.80;99.90;;;-8.26;100.00;101919.25;10229101;28;96461;-91
2024/01/22 03:46:14;;;;;;;48.43;17.73;;;-5.90;99.90;;;-8.28;100.00;101911.50;10215652;28;96437;-90
2024/01/22 03:51:17;;;;;;;47.40;20.97;;;-5.80;99.90;;;-8.29;100.00;101906.34;10213826;28;96372;-89
2024/01/22 03:56:20;;;;;;;46.63;20.30;;;-5.80;99.90;;;-8.30;100.00;101894.31;10213140;28;96491;-89
2024/01/22 04:01:24;;;;;;;48.43;15.20;;;-5.90;99.90;;;-8.32;100.00;101904.66;10222796;28;96828;-90
2024/01/22 04:06:27;;;;;;;48.60;17.43;;;-5.90;99.90;;;-8.38;100.00;101900.41;10209573;28;96500;-90
2024/01/22 04:11:30;;;;;;;55.33;20.50;;;-5.90;99.90;;;-8.32;100.00;101885.75;10207936;28;96636;-90
2024/01/22 04:16:34;;;;;;;50.97;19.33;;;-5.90;99.90;;;-8.29;100.00;101890.88;10205493;28;96775;-89
2024/01/22 04:21:46;;;;;;;51.27;19.60;;;-5.90;99.90;;;-8.30;100.00;101884.88;10226868;28;96978;-90
2024/01/22 04:26:49;;;;;;;;;;;-5.90;99.90;;;-8.33;100.00;101891.78;10213197;28;96571;-90
2024/01/22 04:31:53;;;;;;;72.90;27.03;;;-5.90;99.90;;;-8.45;100.00;101892.72;10212812;28;96557;-91
2024/01/22 04:36:56;;;;;;;42.73;15.50;;;-6.00;99.90;;;-8.48;100.00;101898.72;10198534;28;96609;-90
2024/01/22 04:42:00;;;;;;;42.97;18.17;;;-6.00;99.90;;;-8.50;100.00;101904.75;10227956;28;97119;-90
2024/01/22 04:47:04;;;;;;;54.47;20.57;;;-6.10;99.90;;;-8.56;100.00;101899.63;10225720;28;97318;-90
2024/01/22 04:52:07;;;;;;;44.30;15.70;;;-6.10;99.90;;;-8.54;100.00;101898.75;10212122;28;96437;-90
2024/01/22 04:57:11;;;;;;;43.13;17.90;;;-6.10;99.90;;;-8.53;100.00;101908.19;10225669;28;96603;-90
2024/01/22 05:02:14;;;;;;;49.57;18.17;;;-6.10;99.90;;;-8.48;100.00;101901.31;10208407;28;96659;-88
2024/01/22 05:07:32;;;;;;;44.67;17.87;;;-6.10;99.90;;;-8.39;100.00;101885.81;10218486;28;96634;-91
2024/01/22 05:12:39;;;;;;;67.10;23.57;;;-6.00;99.90;;;-8.19;100.00;101889.97;10211181;28;96534;-91
2024/01/22 05:17:42;;;;;;;47.20;16.80;;;-5.80;99.90;;;-8.01;100.00;101886.44;10209370;28;97456;-89
2024/01/22 05:22:46;;;;;;;52.87;20.63;;;-5.70;99.90;;;-7.88;100.00;101868.28;10230378;28;96632;-89
2024/01/22 05:27:49;;;;;;;60.07;21.90;;;-5.60;99.90;;;-7.71;100.00;101875.06;10228996;28;96482;-89
2024/01/22 05:32:53;;;;;;;67.77;24.23;;;-5.40;99.90;;;-7.61;100.00;101863.81;10217065;28;97907;-88
2024/01/22 05:37:57;;;;;;;57.50;22.83;;;-5.30;99.90;;;-7.48;100.00;101857.66;10216108;28;96524;-89
2024/01/22 05:43:00;;;;;;;80.93;26.63;;;-5.20;99.90;;;-7.34;100.00;101858.38;10217442;28;96367;-89
2024/01/22 05:48:06;;;;;;;108.10;28.33;;;-5.10;99.90;;;-7.23;100.00;101857.44;10231559;28;96553;-89
2024/01/22 05:53:10;;;;;;;87.70;29.30;;;-5.00;99.90;;;-7.16;100.00;101864.25;10231741;28;97115;-88
2024/01/22 05:58:14;;;;;;;70.27;26.67;;;-4.90;99.90;;;-7.09;100.00;101860.72;10213786;28;96619;-87
2024/01/22 06:03:17;;;;;;;73.90;25.53;;;-4.90;99.90;;;-7.04;100.00;101853.78;10202183;28;96575;-87
2024/01/22 06:08:21;;;;;;;66.60;23.60;;;-4.80;99.90;;;-7.07;100.00;101851.25;10199754;28;98369;-87
2024/01/22 06:13:25;;;;;;;63.30;21.00;;;-4.80;99.90;;;-7.09;100.00;101852.97;10209992;28;97913;-87
2024/01/22 06:18:29;;;;;;;59.37;20.10;;;-4.80;99.90;;;-7.17;100.00;101859.97;10240200;28;96517;-85
2024/01/22 06:23:34;;;;;;;70.40;23.23;;;-4.90;99.90;;;-7.24;100.00;101847.97;10255533;28;96575;-88
2024/01/22 06:28:38;;;;;;;83.60;25.13;;;-4.90;99.90;;;-7.16;100.00;101872.00;10236254;28;96754;-87
2024/01/22 06:33:42;;;;;;;66.73;23.20;;;-4.90;99.90;;;-7.09;100.00;101878.81;10247161;28;96442;-88
2024/01/22 06:38:46;;;;;;;67.77;25.33;;;-4.90;99.90;;;-7.12;100.00;101886.63;10213501;28;96494;-88
2024/01/22 06:43:50;;;;;;;87.00;28.67;;;-4.90;99.90;;;-7.04;100.00;101893.41;10215074;28;98320;-88
2024/01/22 06:48:54;;;;;;;100.17;32.57;;;-4.80;99.90;;;-6.97;100.00;101888.19;10214038;28;96589;-88
2024/01/22 06:53:57;;;;;;;80.40;26.87;;;-4.70;99.90;;;-6.90;100.00;101882.91;10230003;28;97355;-89
2024/01/22 06:59:03;;;;;;;79.77;28.03;;;-4.70;99.90;;;-6.80;100.00;101888.84;10214864;28;96465;-88
2024/01/22 07:04:07;;;;;;;77.33;27.33;;;-4.60;99.90;;;-6.65;100.00;101905.94;10229229;28;96590;-89
2024/01/22 07:09:11;;;;;;;64.03;24.50;;;-4.50;99.90;;;-6.52;100.00;101895.44;10214206;28;96666;-89
2024/01/22 07:14:16;;;;;;;83.13;26.13;;;-4.30;99.90;;;-6.43;100.00;101893.59;10244154;28;96701;-89
2024/01/22 07:19:22;;;;;;;53.97;19.97;;;-4.20;99.90;;;-6.36;100.00;101905.59;10202804;28;96527;-89
2024/01/22 07:24:25;;;;;;;79.23;25.53;;;-4.10;99.90;;;-6.25;100.00;101920.09;10177179;28;96611;-89
2024/01/22 07:29:30;;;;;;;70.63;24.53;;;-4.00;99.90;;;-6.16;100.00;101918.28;10244332;28;96599;-89
2024/01/22 07:34:33;;;;;;;62.80;22.97;;;-4.00;99.90;;;-6.10;100.00;101913.88;10212861;28;96742;-88
2024/01/22 07:39:37;;;;;;;60.60;23.93;;;-3.90;99.90;;;-6.01;100.00;101924.09;10212180;28;98082;-88
2024/01/22 07:44:40;;;;;;;53.20;21.30;;;-3.80;99.90;;;-5.91;100.00;101934.34;10244918;28;96388;-89
2024/01/22 07:49:44;;;;;;;49.40;21.03;;;-3.80;99.90;;;-5.86;100.00;101917.84;10227230;28;96566;-90
2024/01/22 07:54:50;;;;;;;44.60;17.77;;;-3.70;99.90;;;-5.73;100.00;101915.94;10213569;28;97767;-89
2024/01/22 07:59:54;;;;;;;51.57;19.97;;;-3.60;99.90;;;-5.65;100.00;101907.16;10227993;28;96669;-90
2024/01/22 08:04:58;;;;;;;54.40;21.30;;;-3.50;99.90;;;-5.55;100.00;101920.84;10241748;28;96521;-89
2024/01/22 08:10:01;;;;;;;53.10;18.93;;;-3.40;99.90;;;-5.49;100.00;101917.28;10213052;28;96731;-89
2024/01/22 08:15:06;;;;;;;45.67;18.70;;;-3.30;99.90;;;-5.44;100.00;101911.16;10220694;28;96781;-90
2024/01/22 08:20:10;;;;;;;42.53;17.83;;;-3.30;99.90;;;-5.41;100.00;101897.28;10223490;28;96551;-89
2024/01/22 08:25:19;;;;;;;51.77;22.03;;;-3.20;99.90;;;-5.42;100.00;101899.03;10209235;28;96646;-89
2024/01/22 08:30:22;;;;;;;44.67;17.40;;;-3.20;99.90;;;-5.25;100.00;101900.50;10240281;28;97207;-89
2024/01/22 08:35:26;;;;;;;47.43;19.30;;;-3.00;99.90;;;-5.11;100.00;101904.56;10214631;28;96680;-89
2024/01/22 08:40:30;;;;;;;50.37;17.60;;;-2.90;99.90;;;-5.07;100.00;101904.50;10206270;28;96685;-89
2024/01/22 08:45:34;;;;;;;41.17;17.17;;;-2.90;99.90;;;-4.98;100.00;101904.34;10191683;28;96666;-89
2024/01/22 08:50:37;;;;;;;55.27;20.03;;;-2.80;99.90;;;-4.88;100.00;101900.69;10208910;28;96604;-89
2024/01/22 08:55:41;;;;;;;32.90;15.40;;;-2.80;99.90;;;-4.75;100.00;101889.22;10213706;28;97224;-89
2024/01/22 09:00:44;;;;;;;63.17;24.27;;;-2.60;99.90;;;-4.63;100.00;101888.13;10207854;28;96725;-88
2024/01/22 09:05:49;;;;;;;53.30;21.67;;;-2.50;99.90;;;-4.64;100.00;101882.06;10210801;28;96519;-89
2024/01/22 09:10:53;;;;;;;39.50;16.03;;;-2.50;99.90;;;-4.54;100.00;101887.94;10206595;28;97160;-89
2024/01/22 09:15:57;;;;;;;36.20;14.43;;;-2.40;99.90;;;-4.46;100.00;101877.41;10221531;28;96653;-89
2024/01/22 09:21:02;;;;;;;47.70;20.03;;;-2.30;99.90;;;-4.38;100.00;101860.81;10206986;28;98088;-89
2024/01/22 09:26:05;;;;;;;52.60;18.70;;;-2.20;99.90;;;-4.26;100.00;101854.47;10220445;28;96750;-89
2024/01/22 09:31:09;;;;;;;43.07;17.43;;;-2.10;99.90;;;-4.09;100.00;101852.38;10210703;28;96553;-89
2024/01/22 09:36:13;;;;;;;44.60;18.17;;;-2.00;99.90;;;-3.95;100.00;101840.84;10186055;28;97690;-88
2024/01/22 09:41:19;;;;;;;40.83;17.13;;;-1.80;99.90;;;-3.86;100.00;101835.41;10232862;28;96533;-88
2024/01/22 09:46:23;;;;;;;41.83;16.57;;;-1.70;99.90;;;-3.67;100.00;101807.25;10228686;28;97091;-88
2024/01/22 09:51:28;;;;;;;46.27;20.00;;;-1.60;99.90;;;-3.46;100.00;101800.66;10219096;28;96967;-88
2024/01/22 09:56:34;;;;;;;43.93;17.60;;;-1.40;99.90;;;-3.20;100.00;101803.44;10225795;28;96624;-88
2024/01/22 10:01:38;;;;;;;44.03;18.17;;;-1.20;99.90;;;-2.90;100.00;101780.06;10239241;28;97468;-88
2024/01/22 10:06:44;;;;;;;42.77;18.43;;;-0.90;99.90;;;-2.51;100.00;101768.50;10228173;28;97110;-89
2024/01/22 10:11:47;;;;;;;47.27;18.63;;;-0.60;99.90;;;-2.22;100.00;101764.13;10209019;28;98075;-89
2024/01/22 10:16:51;;;;;;;45.27;17.33;;;-0.30;99.90;;;-1.90;100.00;101750.97;10221859;28;98295;-89
2024/01/22 10:22:01;;;;;;;46.20;18.40;;;0.10;99.90;;;-1.69;100.00;101751.97;10226031;28;97192;-89
2024/01/22 10:27:15;;;;;;;38.90;18.50;;;0.40;99.90;;;-1.30;100.00;101737.63;10233375;28;96909;-88
2024/01/22 10:32:21;;;;;;;42.67;18.67;;;0.70;99.90;;;-0.97;100.00;101728.56;10243980;28;97231;-86
2024/01/22 10:37:25;;;;;;;41.97;19.03;;;1.10;99.90;;;-0.56;100.00;101716.56;10241605;28;96704;-87
2024/01/22 10:42:30;;;;;;;36.87;16.27;;;1.40;99.90;;;-0.31;100.00;101697.31;10226697;28;96573;-85
2024/01/22 10:47:34;;;;;;;42.77;18.00;;;1.60;99.90;;;-0.39;100.00;101687.19;10204232;28;97998;-85
2024/01/22 10:52:38;;;;;;;49.27;22.10;;;1.60;99.90;;;-0.48;100.00;101673.63;10189112;28;99012;-86
2024/01/22 10:57:46;;;;;;;33.00;16.13;;;1.50;99.90;;;-0.11;100.00;101662.56;10245278;28;96810;-86
2024/01/22 11:02:54;;;;;;;35.30;17.97;;;1.90;99.90;;;0.51;100.00;101657.22;10242061;28;96548;-86
2024/01/22 11:07:59;;;;;;;39.17;17.30;;;2.60;99.90;;;0.94;100.00;101649.19;10174016;28;96556;-86
2024/01/22 11:13:05;;;;;;;43.10;20.00;;;2.90;99.90;;;0.90;100.00;101627.56;10204265;28;96736;-86
2024/01/22 11:18:10;;;;;;;41.10;18.13;;;2.80;99.90;;;0.76;97.04;101624.72;10211153;28;96802;-86
2024/01/22 11:23:16;;;;;;;35.93;15.53;;;2.70;99.90;;;0.71;93.38;101606.63;10222592;28;98178;-86
2024/01/22 11:28:20;;;;;;;33.90;16.73;;;2.60;99.90;;;0.48;92.18;101607.69;10227025;28;96647;-86
2024/01/22 11:33:24;;;;;;;41.63;17.37;;;2.40;99.90;;;0.27;92.29;101590.31;10240013;28;96654;-86
2024/01/22 11:38:53;;;;;;;37.80;17.83;;;2.00;99.90;;;0.10;89.92;101583.22;10211690;28;97308;-86
2024/01/22 11:43:57;;;;;;;33.17;16.40;;;1.80;99.90;;;0.01;91.15;101570.56;10213673;28;97080;-85
2024/01/22 11:49:09;;;;;;;39.60;18.00;;;1.70;99.90;;;-0.16;91.37;101560.00;10197768;28;96493;-85
2024/01/22 11:54:13;;;;;;;37.72;17.95;;;1.60;99.90;;;-0.18;92.06;101551.34;10194703;28;96786;-85
2024/01/22 11:59:16;;;;;;;38.93;17.43;;;1.50;99.90;;;-0.31;92.83;101543.19;10205514;28;96568;-85
2024/01/22 12:04:21;;;;;;;33.30;16.13;;;1.50;99.90;;;-0.20;95.21;101527.06;10210412;28;96943;-86
2024/01/22 12:09:24;;;;;;;40.70;17.93;;;1.60;99.90;;;-0.16;93.86;101526.03;10209881;28;96918;-85
2024/01/22 12:14:28;;;;;;;40.20;18.53;;;1.70;99.90;;;-0.27;93.85;101522.09;10220360;28;96657;-85
2024/01/22 12:19:31;;;;;;;34.63;15.17;;;1.60;99.90;;;-0.29;93.40;101518.72;10216327;28;96944;-85
2024/01/22 12:24:35;;;;;;;30.40;14.90;;;1.60;99.90;;;-0.35;94.85;101523.38;10201382;28;97329;-85
2024/01/22 12:29:39;;;;;;;41.17;18.47;;;1.60;99.90;;;-0.57;93.72;101528.63;10211478;28;97873;-85
2024/01/22 12:34:58;;;;;;;45.87;17.47;;;1.50;99.90;;;-0.91;93.63;101534.38;10195510;28;97739;-85
2024/01/22 12:40:15;;;;;;;40.90;17.40;;;1.20;99.90;;;-1.16;95.69;101544.94;10217670;28;96665;-86
2024/01/22 12:45:21;;;;;;;32.00;15.00;;;0.90;99.90;;;-1.37;96.57;101526.63;10209871;28;96586;-86
2024/01/22 12:50:25;;;;;;;39.23;16.57;;;0.60;99.90;;;-1.48;97.52;101548.81;10209619;28;96590;-86
2024/01/22 12:55:28;;;;;;;46.17;17.67;;;0.50;99.90;;;-1.59;99.43;101544.00;10223685;28;96600;-86
2024/01/22 13:00:32;;;;;;;38.83;16.50;;;0.40;99.90;;;-1.56;100.00;101540.41;10199082;28;98592;-87
2024/01/22 13:05:35;;;;;;;37.50;16.13;;;0.40;99.90;;;-1.72;98.42;101534.94;10210261;28;96650;-87
2024/01/22 13:10:40;;;;;;;42.50;17.47;;;0.30;99.90;;;-1.89;100.00;101527.72;10187448;28;96512;-87
2024/01/22 13:15:46;;;;;;;39.33;17.20;;;0.10;99.90;;;-1.95;100.00;101527.94;10209999;28;96681;-87
2024/01/22 13:21:09;;;;;;;34.67;15.90;;;0.00;99.90;;;-2.19;100.00;101520.09;10214436;28;96544;-86
2024/01/22 13:26:13;;;;;;;37.87;16.37;;;-0.10;99.90;;;-2.30;100.00;101503.16;10209563;28;97552;-86
2024/01/22 13:31:17;;;;;;;41.00;15.77;;;-0.30;99.90;;;-2.43;100.00;101510.56;10206451;28;96624;-86
2024/01/22 13:36:21;;;;;;;44.10;16.57;;;-0.40;99.90;;;-2.52;100.00;101514.34;10198251;28;98268;-87
2024/01/22 13:41:29;;;;;;;44.40;18.60;;;-0.50;99.90;;;-2.64;100.00;101512.13;10210179;28;98556;-87
2024/01/22 13:46:33;;;;;;;37.63;14.97;;;-0.60;99.90;;;-2.72;100.00;101495.94;10231855;28;97087;-87
2024/01/22 13:51:38;;;;;;;45.90;18.33;;;-0.60;99.90;;;-2.83;100.00;101480.66;10230181;28;97300;-87
2024/01/22 13:56:42;;;;;;;35.23;14.87;;;-0.70;99.90;;;-2.86;100.00;101472.13;10215000;28;96484;-87
2024/01/22 14:01:45;;;;;;;42.67;15.90;;;-0.70;99.90;;;-2.90;100.00;101467.94;10214381;28;96710;-87
2024/01/22 14:06:49;;;;;;;43.13;17.03;;;-0.80;99.90;;;-2.91;100.00;101466.22;10230363;28;97166;-87
2024/01/22 14:11:54;;;;;;;41.33;15.53;;;-0.80;99.90;;;-3.02;100.00;101459.63;10214620;28;98466;-87
2024/01/22 14:16:58;;;;;;;40.40;16.90;;;-0.90;99.90;;;-3.18;100.00;101474.00;10214762;28;96664;-88
2024/01/22 14:22:01;;;;;;;36.57;15.17;;;-1.00;99.90;;;-3.27;100.00;101469.97;10230202;28;96714;-89
2024/01/22 14:27:05;;;;;;;39.77;15.23;;;-1.10;99.90;;;-3.40;100.00;101473.03;10214007;28;96632;-87
2024/01/22 14:32:09;;;;;;;32.77;15.07;;;-1.20;99.90;;;-3.56;100.00;101457.88;10197892;28;98171;-88
2024/01/22 14:37:12;;;;;;;38.77;15.80;;;-1.40;99.90;;;-3.72;100.00;101456.66;10212926;28;97540;-88
2024/01/22 14:42:16;;;;;;;48.87;16.13;;;-1.50;99.90;;;-3.82;100.00;101455.25;10213805;28;96637;-89
2024/01/22 14:47:19;;;;;;;41.77;15.43;;;-1.70;99.90;;;-3.89;100.00;101443.34;10210887;28;96652;-88
2024/01/22 14:52:26;;;;;;;37.43;15.30;;;-1.70;99.90;;;-4.00;100.00;101440.19;10218595;28;97868;-88
2024/01/22 14:57:31;;;;;;;47.30;17.00;;;-1.80;99.90;;;-4.07;100.00;101434.34;10195871;28;96558;-89
2024/01/22 15:02:35;;;;;;;46.77;18.10;;;-1.90;99.90;;;-4.15;100.00;101403.38;10212055;28;97955;-88
2024/01/22 15:07:38;;;;;;;44.63;15.83;;;-2.00;99.90;;;-4.25;100.00;101401.13;10212066;28;96984;-88
2024/01/22 15:12:43;;;;;;;44.27;15.47;;;-2.00;99.90;;;-4.32;100.00;101408.22;10245255;28;96705;-86
2024/01/22 15:17:46;;;;;;;53.80;18.70;;;-2.00;99.90;;;-4.37;100.00;101394.56;10248815;28;98060;-88
2024/01/22 15:22:50;;;;;;;67.70;22.43;;;-2.10;99.90;;;-4.40;100.00;101379.06;10227424;28;96611;-88
2024/01/22 15:27:54;;;;;;;50.83;20.43;;;-2.20;99.90;;;-4.38;100.00;101379.84;10215560;28;96536;-88
2024/01/22 15:32:58;;;;;;;48.93;17.60;;;-2.20;99.90;;;-4.40;100.00;101360.88;10200772;28;97733;-88
2024/01/22 15:38:02;;;;;;;43.57;18.63;;;-2.20;99.90;;;-4.42;100.00;101371.31;10211014;28;96676;-89
2024/01/22 15:43:06;;;;;;;50.00;18.40;;;-2.30;99.90;;;-4.41;100.00;101356.59;10211833;28;96626;-88
2024/01/22 15:48:10;;;;;;;58.50;19.00;;;-2.30;99.90;;;-4.34;100.00;101355.53;10245509;28;96557;-88
2024/01/22 15:53:14;;;;;;;49.97;18.83;;;-2.20;99.90;;;-4.26;100.00;101363.06;10241763;28;96639;-89
2024/01/22 15:58:17;;;;;;;58.93;17.97;;;-2.20;99.90;;;-4.21;100.00;101356.84;10215871;28;97266;-88
2024/01/22 16:03:21;;;;;;;47.40;16.67;;;-2.20;99.90;;;-4.14;100.00;101344.53;10216252;28;96833;-89
2024/01/22 16:08:26;;;;;;;50.37;19.10;;;-2.10;99.90;;;-4.08;100.00;101323.56;10220840;28;98535;-90
2024/01/22 16:13:30;;;;;;;46.63;16.70;;;-2.00;99.90;;;-4.06;100.00;101320.06;10212198;28;96827;-89
2024/01/22 16:18:33;;;;;;;48.23;17.63;;;-1.90;99.90;;;-4.03;100.00;101309.56;10207016;28;97949;-89
2024/01/22 16:23:38;;;;;;;50.83;18.47;;;-1.90;99.90;;;-3.99;100.00;101301.69;10244013;28;98212;-89
2024/01/22 16:28:41;;;;;;;51.67;19.93;;;-1.90;99.90;;;-3.97;100.00;101299.88;10239759;28;96871;-90
2024/01/22 16:33:45;;;;;;;93.40;34.53;;;-1.90;99.90;;;-3.96;100.00;101297.22;10221146;28;96591;-90
2024/01/22 16:38:49;;;;;;;52.23;20.10;;;-1.80;99.90;;;-3.94;100.00;101305.00;10209643;28;97866;-90
2024/01/22 16:43:53;;;;;;;56.67;17.70;;;-1.90;99.90;;;-3.93;100.00;101309.28;10211308;28;97289;-90
2024/01/22 16:48:57;;;;;;;67.83;21.50;;;-1.90;99.90;;;-3.88;100.00;101307.41;10205271;28;97842;-90
2024/01/22 16:54:00;;;;;;;46.23;17.77;;;-1.80;99.90;;;-3.87;100.00;101306.50;10211645;28;96482;-90
2024/01/22 16:59:05;;;;;;;60.57;19.40;;;-1.80;99.90;;;-3.85;100.00;101294.28;10208780;28;96666;-89
2024/01/22 17:04:09;;;;;;;52.87;17.00;;;-1.80;99.90;;;-3.79;100.00;101284.56;10208973;28;96676;-90
2024/01/22 17:09:12;;;;;;;65.20;22.17;;;-1.70;99.90;;;-3.77;100.00;101255.97;10209351;28;97771;-88
2024/01/22 17:14:16;;;;;;;46.33;18.33;;;-1.70;99.90;;;-3.69;100.00;101264.34;10209558;28;96687;-89
2024/01/22 17:19:19;;;;;;;70.80;25.30;;;-1.60;99.90;;;-3.66;100.00;101266.81;10208325;28;96530;-89
2024/01/22 17:24:23;;;;;;;67.97;23.90;;;-1.50;99.90;;;-3.61;100.00;101271.84;10240008;28;96693;-89
2024/01/22 17:29:28;;;;;;;52.07;19.97;;;-1.50;99.90;;;-3.56;100.00;101269.97;10223530;28;97151;-89
2024/01/22 17:34:32;;;;;;;67.13;21.43;;;-1.50;99.90;;;-3.54;100.00;101255.16;10254286;28;96663;-89
2024/01/22 17:39:36;;;;;;;57.03;20.43;;;-1.50;99.90;;;-3.50;100.00;101256.75;10236037;28;96727;-89
2024/01/22 17:44:40;;;;;;;70.60;22.97;;;-1.40;99.90;;;-3.45;100.00;101254.00;10238365;28;96474;-89
2024/01/22 17:49:43;;;;;;;62.13;22.10;;;-1.40;99.90;;;-3.40;100.00;101244.31;10220927;28;96732;-89
2024/01/22 17:54:47;;;;;;;100.33;30.80;;;-1.40;99.90;;;-3.37;100.00;101236.38;10228065;28;98623;-89
2024/01/22 17:59:50;;;;;;;103.10;34.37;;;-1.30;99.90;;;-3.30;100.00;101230.94;10221438;28;96525;-89
2024/01/22 18:04:54;;;;;;;81.60;28.73;;;-1.20;99.90;;;-3.30;100.00;101215.34;10222224;28;96906;-89
2024/01/22 18:09:57;;;;;;;74.03;28.20;;;-1.20;99.90;;;-3.22;100.00;101202.06;10233183;28;96943;-88
2024/01/22 18:15:01;;;;;;;53.83;19.23;;;-1.20;99.90;;;-3.16;100.00;101191.44;10243786;28;96539;-88
2024/01/22 18:20:05;;;;;;;48.90;19.50;;;-1.10;99.90;;;-3.15;100.00;101172.31;10212666;28;96745;-88
2024/01/22 18:25:09;;;;;;;51.00;18.47;;;-1.00;99.90;;;-3.12;100.00;101169.63;10228444;28;96542;-88
2024/01/22 18:30:13;;;;;;;54.97;19.20;;;-1.00;99.90;;;-3.14;100.00;101174.03;10237526;28;96877;-87
2024/01/22 18:35:17;;;;;;;46.97;18.37;;;-1.10;99.90;;;-3.13;100.00;101157.50;10210027;28;97623;-88
2024/01/22 18:40:23;;;;;;;55.80;19.73;;;-1.10;99.90;;;-3.08;100.00;101157.34;10213204;28;96576;-87
2024/01/22 18:45:26;;;;;;;66.07;22.53;;;-1.00;99.90;;;-3.06;100.00;101156.41;10217712;28;96580;-87
2024/01/22 18:50:35;;;;;;;43.90;17.83;;;-1.00;99.90;;;-3.01;100.00;101153.59;10232442;28;96632;-87
2024/01/22 18:55:39;;;;;;;53.67;18.80;;;-1.00;99.90;;;-2.98;100.00;101151.75;10215647;28;96596;-87
2024/01/22 19:00:43;;;;;;;53.87;19.07;;;-0.90;99.90;;;-2.99;100.00;101123.22;10214253;28;97420;-86
2024/01/22 19:05:47;;;;;;;55.47;20.07;;;-0.90;99.90;;;-2.99;100.00;101110.19;10216786;28;96567;-87
2024/01/22 19:10:51;;;;;;;62.30;21.70;;;-0.90;99.90;;;-2.95;100.00;101098.75;10220721;28;96628;-87
2024/01/22 19:15:55;;;;;;;56.73;19.10;;;-0.90;99.90;;;-2.98;100.00;101086.72;10220007;28;96620;-87
2024/01/22 19:20:58;;;;;;;59.90;19.67;;;-0.90;99.90;;;-2.99;100.00;101063.41;10227923;28;96594;-87
2024/01/22 19:26:02;;;;;;;55.93;19.27;;;-0.90;99.90;;;-3.01;100.00;101067.78;10241479;28;96739;-87
2024/01/22 19:31:06;;;;;;;55.20;19.53;;;-0.90;99.90;;;-3.03;100.00;101052.25;10212078;28;96738;-87
2024/01/22 19:36:10;;;;;;;54.40;18.70;;;-0.90;99.90;;;-3.01;100.00;101029.63;10245231;28;96668;-87
2024/01/22 19:41:13;;;;;;;61.07;19.60;;;-0.90;99.90;;;-3.01;100.00;101016.63;10212475;28;97551;-87
2024/01/22 19:46:16;;;;;;;56.53;19.77;;;-0.90;99.90;;;-3.01;100.00;101016.63;10213839;28;96673;-87
2024/01/22 19:51:24;;;;;;;59.93;19.80;;;-0.90;99.90;;;-2.94;100.00;101008.56;10216065;28;98387;-87
2024/01/22 19:56:28;;;;;;;60.97;19.30;;;-0.90;99.90;;;-2.93;100.00;101011.13;10210125;28;96537;-87
2024/01/22 20:01:32;;;;;;;82.03;24.20;;;-0.80;99.90;;;-2.88;100.00;101040.38;10241464;28;96595;-87
2024/01/22 20:06:36;;;;;;;68.00;22.10;;;-0.80;99.90;;;-2.86;100.00;101032.53;10230470;28;97199;-87
2024/01/22 20:11:40;;;;;;;69.30;21.93;;;-0.80;99.90;;;-2.83;100.00;101043.66;10212935;28;96742;-87
2024/01/22 20:16:44;;;;;;;66.73;20.03;;;-0.80;99.90;;;-2.81;100.00;101039.25;10224009;28;96426;-87
2024/01/22 20:21:47;;;;;;;70.87;22.53;;;-0.80;99.90;;;-2.82;100.00;101053.16;10229550;28;96608;-87